Time,TemperatureF,DewpointF,PressureIn,WindDirection,WindDirectionDegrees,WindSpeedMPH,WindSpeedGustMPH,Humidity,HourlyPrecipIn,Conditions,Clouds,dailyrainin,SoftwareType,DateUTC
2013-04-26 00:05:00,46.1,34.0,30.31,SE,145,0.0,2.0,63,0.00,,,0.00,weatherlink.com 1.10,2013-04-26 04:05:00,
2013-04-26 00:20:00,45.9,34.0,30.31,SE,125,0.0,2.0,64,0.00,,,0.00,weatherlink.com 1.10,2013-04-26 04:20:00,
2013-04-26 00:35:00,45.0,34.0,30.31,SE,127,0.0,1.0,65,0.00,,,0.00,weatherlink.com 1.10,2013-04-26 04:35:00,
2013-04-26 00:50:00,43.2,34.0,30.31,North,351,1.0,2.0,70,0.00,,,0.00,weatherlink.com 1.10,2013-04-26 04:50:00,
2013-04-26 01:05:00,43.2,33.0,30.31,North,352,0.0,1.0,68,0.00,,,0.00,weatherlink.com 1.10,2013-04-26 05:05:00,
2013-04-26 01:20:00,41.5,34.0,30.31,North,352,0.0,0.0,74,0.00,,,0.00,weatherlink.com 1.10,2013-04-26 05:20:00,
2013-04-26 01:35:00,41.1,34.0,30.31,North,349,0.0,0.0,75,0.00,,,0.00,weatherlink.com 1.10,2013-04-26 05:35:00,
2013-04-26 01:50:00,39.8,33.0,30.31,North,10,2.0,2.0,78,0.00,,,0.00,weatherlink.com 1.10,2013-04-26 05:50:00,
2013-04-26 02:05:00,39.5,34.0,30.32,NNW,347,2.0,3.0,80,0.00,,,0.00,weatherlink.com 1.10,2013-04-26 06:05:00,
2013-04-26 02:20:00,39.1,34.0,30.32,NW,319,2.0,2.0,82,0.00,,,0.00,weatherlink.com 1.10,2013-04-26 06:20:00,
2013-04-26 02:36:00,40.1,34.0,30.33,NNE,19,3.0,3.0,79,0.00,,,0.00,weatherlink.com 1.10,2013-04-26 06:36:00,
2013-04-26 02:51:00,41.3,33.0,30.33,NNE,12,1.0,3.0,73,0.00,,,0.00,weatherlink.com 1.10,2013-04-26 06:51:00,
2013-04-26 03:06:00,41.5,33.0,30.34,NNW,342,3.0,3.0,73,0.00,,,0.00,weatherlink.com 1.10,2013-04-26 07:06:00,
2013-04-26 03:21:00,42.6,34.0,30.34,NNW,332,0.0,6.0,72,0.00,,,0.00,weatherlink.com 1.10,2013-04-26 07:21:00,
2013-04-26 03:36:00,42.2,33.0,30.35,NNE,29,3.0,5.0,71,0.00,,,0.00,weatherlink.com 1.10,2013-04-26 07:36:00,
2013-04-26 03:51:00,42.3,34.0,30.35,NNW,333,3.0,4.0,72,0.00,,,0.00,weatherlink.com 1.10,2013-04-26 07:51:00,
2013-04-26 04:07:00,43.4,35.0,30.36,NW,316,1.0,6.0,72,0.00,,,0.00,weatherlink.com 1.10,2013-04-26 08:07:00,
2013-04-26 04:21:00,42.1,34.0,30.36,ENE,71,3.0,3.0,72,0.00,,,0.00,weatherlink.com 1.10,2013-04-26 08:21:00,
2013-04-26 04:36:00,42.4,34.0,30.36,East,86,0.0,1.0,71,0.00,,,0.00,weatherlink.com 1.10,2013-04-26 08:36:00,
2013-04-26 04:51:00,40.7,33.0,30.37,WSW,248,0.0,1.0,75,0.00,,,0.00,weatherlink.com 1.10,2013-04-26 08:51:00,
2013-04-26 05:06:00,40.0,34.0,30.38,WSW,249,1.0,1.0,78,0.00,,,0.00,weatherlink.com 1.10,2013-04-26 09:06:00,
2013-04-26 05:21:00,39.0,33.0,30.38,WSW,250,0.0,0.0,78,0.00,,,0.00,weatherlink.com 1.10,2013-04-26 09:21:00,
2013-04-26 05:36:00,38.3,33.0,30.39,WSW,249,0.0,1.0,82,0.00,,,0.00,weatherlink.com 1.10,2013-04-26 09:36:00,
2013-04-26 05:51:00,37.4,32.0,30.39,WSW,250,0.0,1.0,82,0.00,,,0.00,weatherlink.com 1.10,2013-04-26 09:51:00,
2013-04-26 06:06:00,36.6,33.0,30.40,North,360,0.0,1.0,85,0.00,,,0.00,weatherlink.com 1.10,2013-04-26 10:06:00,
2013-04-26 06:21:00,36.2,32.0,30.40,ESE,110,0.0,1.0,86,0.00,,,0.00,weatherlink.com 1.10,2013-04-26 10:21:00,
2013-04-26 06:36:00,36.1,32.0,30.41,ESE,120,0.0,0.0,86,0.00,,,0.00,weatherlink.com 1.10,2013-04-26 10:36:00,
2013-04-26 06:51:00,38.3,34.0,30.42,ESE,120,0.0,1.0,84,0.00,,,0.00,weatherlink.com 1.10,2013-04-26 10:51:00,
2013-04-26 07:06:00,40.2,34.0,30.43,ESE,120,0.0,1.0,78,0.00,,,0.00,weatherlink.com 1.10,2013-04-26 11:06:00,
2013-04-26 07:21:00,42.3,34.0,30.44,West,265,0.0,2.0,73,0.00,,,0.00,weatherlink.com 1.10,2013-04-26 11:21:00,
2013-04-26 07:36:00,43.0,34.0,30.44,North,4,2.0,2.0,70,0.00,,,0.00,weatherlink.com 1.10,2013-04-26 11:36:00,
2013-04-26 07:51:00,45.9,35.0,30.45,ESE,105,0.0,1.0,66,0.00,,,0.00,weatherlink.com 1.10,2013-04-26 11:51:00,
2013-04-26 08:06:00,47.5,35.0,30.46,ESE,104,0.0,1.0,62,0.00,,,0.00,weatherlink.com 1.10,2013-04-26 12:06:00,
2013-04-26 08:21:00,48.3,34.0,30.46,NNW,343,2.0,3.0,59,0.00,,,0.00,weatherlink.com 1.10,2013-04-26 12:21:00,
2013-04-26 08:36:00,48.3,33.0,30.46,NE,53,0.0,7.0,57,0.00,,,0.00,weatherlink.com 1.10,2013-04-26 12:36:00,
2013-04-26 08:51:00,48.4,34.0,30.46,NNE,14,1.0,8.0,57,0.00,,,0.00,weatherlink.com 1.10,2013-04-26 12:51:00,
2013-04-26 09:06:00,49.6,34.0,30.47,NNE,27,1.0,6.0,56,0.00,,,0.00,weatherlink.com 1.10,2013-04-26 13:06:00,
2013-04-26 09:22:00,49.3,33.0,30.47,NE,44,0.0,8.0,54,0.00,,,0.00,weatherlink.com 1.10,2013-04-26 13:22:00,
2013-04-26 09:37:00,49.4,34.0,30.47,NNE,18,7.0,12.0,55,0.00,,,0.00,weatherlink.com 1.10,2013-04-26 13:37:00,
2013-04-26 09:52:00,50.4,32.0,30.47,NNE,31,6.0,11.0,50,0.00,,,0.00,weatherlink.com 1.10,2013-04-26 13:52:00,
2013-04-26 10:07:00,50.8,33.0,30.47,WNW,283,4.0,11.0,50,0.00,,,0.00,weatherlink.com 1.10,2013-04-26 14:07:00,
2013-04-26 10:22:00,51.4,33.0,30.48,NW,314,9.0,11.0,49,0.00,,,0.00,weatherlink.com 1.10,2013-04-26 14:22:00,
2013-04-26 10:37:00,53.2,32.0,30.47,WNW,287,4.0,10.0,45,0.00,,,0.00,weatherlink.com 1.10,2013-04-26 14:37:00,
2013-04-26 10:52:00,53.0,30.0,30.47,North,360,12.0,14.0,42,0.00,,,0.00,weatherlink.com 1.10,2013-04-26 14:52:00,
2013-04-26 11:07:00,53.0,31.0,30.47,West,262,5.0,13.0,43,0.00,,,0.00,weatherlink.com 1.10,2013-04-26 15:07:00,
2013-04-26 11:22:00,53.3,29.0,30.47,WSW,252,3.0,16.0,40,0.00,,,0.00,weatherlink.com 1.10,2013-04-26 15:22:00,
2013-04-26 11:37:00,54.7,31.0,30.46,ENE,62,3.0,9.0,41,0.00,,,0.00,weatherlink.com 1.10,2013-04-26 15:37:00,
2013-04-26 11:52:00,55.5,29.0,30.46,NNE,13,10.0,12.0,36,0.00,,,0.00,weatherlink.com 1.10,2013-04-26 15:52:00,
2013-04-26 12:07:00,55.2,30.0,30.45,East,79,5.0,9.0,38,0.00,,,0.00,weatherlink.com 1.10,2013-04-26 16:07:00,
2013-04-26 12:22:00,56.3,29.0,30.45,SW,231,2.0,8.0,35,0.00,,,0.00,weatherlink.com 1.10,2013-04-26 16:22:00,
2013-04-26 12:37:00,56.1,29.0,30.44,NNW,335,6.0,9.0,35,0.00,,,0.00,weatherlink.com 1.10,2013-04-26 16:37:00,
2013-04-26 12:52:00,56.7,29.0,30.44,SW,217,8.0,9.0,35,0.00,,,0.00,weatherlink.com 1.10,2013-04-26 16:52:00,
2013-04-26 13:07:00,57.3,28.0,30.43,SSE,150,1.0,7.0,33,0.00,,,0.00,weatherlink.com 1.10,2013-04-26 17:07:00,
2013-04-26 13:22:00,58.3,28.0,30.43,NW,309,4.0,10.0,31,0.00,,,0.00,weatherlink.com 1.10,2013-04-26 17:22:00,
2013-04-26 13:37:00,58.8,28.0,30.43,ESE,104,1.0,2.0,31,0.00,,,0.00,weatherlink.com 1.10,2013-04-26 17:37:00,
2013-04-26 13:52:00,58.4,25.0,30.43,NNW,342,3.0,8.0,28,0.00,,,0.00,weatherlink.com 1.10,2013-04-26 17:52:00,
2013-04-26 14:07:00,58.6,26.0,30.42,East,86,0.0,6.0,29,0.00,,,0.00,weatherlink.com 1.10,2013-04-26 18:07:00,
2013-04-26 14:22:00,60.1,27.0,30.42,West,280,1.0,7.0,28,0.00,,,0.00,weatherlink.com 1.10,2013-04-26 18:22:00,
2013-04-26 14:37:00,59.7,28.0,30.41,NE,43,1.0,9.0,30,0.00,,,0.00,weatherlink.com 1.10,2013-04-26 18:37:00,
2013-04-26 14:52:00,61.1,29.0,30.41,ENE,59,1.0,6.0,30,0.00,,,0.00,weatherlink.com 1.10,2013-04-26 18:52:00,
2013-04-26 15:07:00,60.1,28.0,30.41,NNW,338,2.0,11.0,30,0.00,,,0.00,weatherlink.com 1.10,2013-04-26 19:07:00,
2013-04-26 15:22:00,61.6,30.0,30.40,SSW,203,1.0,4.0,30,0.00,,,0.00,weatherlink.com 1.10,2013-04-26 19:22:00,
2013-04-26 15:37:00,61.0,29.0,30.40,WSW,246,4.0,6.0,30,0.00,,,0.00,weatherlink.com 1.10,2013-04-26 19:37:00,
2013-04-26 15:52:00,62.6,30.0,30.40,West,269,3.0,7.0,29,0.00,,,0.00,weatherlink.com 1.10,2013-04-26 19:52:00,
2013-04-26 16:07:00,62.5,30.0,30.39,SE,138,0.0,6.0,29,0.00,,,0.00,weatherlink.com 1.10,2013-04-26 20:07:00,
2013-04-26 16:22:00,61.4,29.0,30.39,WNW,295,3.0,11.0,29,0.00,,,0.00,weatherlink.com 1.10,2013-04-26 20:22:00,
2013-04-26 16:37:00,61.0,29.0,30.38,West,260,3.0,9.0,30,0.00,,,0.00,weatherlink.com 1.10,2013-04-26 20:37:00,
2013-04-26 16:52:00,63.6,31.0,30.38,East,99,3.0,5.0,29,0.00,,,0.00,weatherlink.com 1.10,2013-04-26 20:52:00,
2013-04-26 17:07:00,63.2,30.0,30.37,East,101,7.0,7.0,29,0.00,,,0.00,weatherlink.com 1.10,2013-04-26 21:07:00,
2013-04-26 17:22:00,62.7,31.0,30.37,SW,222,1.0,4.0,31,0.00,,,0.00,weatherlink.com 1.10,2013-04-26 21:22:00,
2013-04-26 17:37:00,63.4,30.0,30.36,NNE,27,1.0,4.0,29,0.00,,,0.00,weatherlink.com 1.10,2013-04-26 21:37:00,
2013-04-26 17:52:00,63.0,32.0,30.36,ENE,78,1.0,7.0,31,0.00,,,0.00,weatherlink.com 1.10,2013-04-26 21:52:00,
2013-04-26 18:07:00,62.9,30.0,30.36,ENE,62,6.0,7.0,29,0.00,,,0.00,weatherlink.com 1.10,2013-04-26 22:07:00,
2013-04-26 18:22:00,62.3,30.0,30.36,East,95,4.0,7.0,30,0.00,,,0.00,weatherlink.com 1.10,2013-04-26 22:22:00,
2013-04-26 18:37:00,61.9,31.0,30.36,SSE,162,1.0,7.0,31,0.00,,,0.00,weatherlink.com 1.10,2013-04-26 22:37:00,
2013-04-26 18:52:00,61.7,30.0,30.36,SE,139,2.0,6.0,30,0.00,,,0.00,weatherlink.com 1.10,2013-04-26 22:52:00,
2013-04-26 19:07:00,61.6,31.0,30.36,NNE,12,0.0,6.0,31,0.00,,,0.00,weatherlink.com 1.10,2013-04-26 23:07:00,
2013-04-26 19:22:00,61.1,30.0,30.37,ENE,68,0.0,5.0,31,0.00,,,0.00,weatherlink.com 1.10,2013-04-26 23:22:00,
2013-04-26 19:37:00,60.5,30.0,30.37,NE,49,0.0,4.0,32,0.00,,,0.00,weatherlink.com 1.10,2013-04-26 23:37:00,
2013-04-26 19:52:00,59.3,31.0,30.38,East,84,0.0,2.0,34,0.00,,,0.00,weatherlink.com 1.10,2013-04-26 23:52:00,
2013-04-26 20:07:00,57.8,29.0,30.38,ENE,67,0.0,1.0,34,0.00,,,0.00,weatherlink.com 1.10,2013-04-27 00:07:00,
2013-04-26 20:22:00,55.9,34.0,30.38,ENE,67,0.0,0.0,44,0.00,,,0.00,weatherlink.com 1.10,2013-04-27 00:22:00,
2013-04-26 20:37:00,53.3,34.0,30.39,ENE,67,0.0,0.0,48,0.00,,,0.00,weatherlink.com 1.10,2013-04-27 00:37:00,
2013-04-26 20:52:00,51.8,34.0,30.39,ENE,66,0.0,0.0,51,0.00,,,0.00,weatherlink.com 1.10,2013-04-27 00:52:00,
2013-04-26 21:07:00,50.7,32.0,30.40,SSE,166,0.0,3.0,50,0.00,,,0.00,weatherlink.com 1.10,2013-04-27 01:07:00,
2013-04-26 21:22:00,50.4,34.0,30.40,SSE,166,0.0,0.0,53,0.00,,,0.00,weatherlink.com 1.10,2013-04-27 01:22:00,
2013-04-26 21:37:00,49.6,34.0,30.41,SSE,157,1.0,1.0,55,0.00,,,0.00,weatherlink.com 1.10,2013-04-27 01:37:00,
2013-04-26 21:52:00,48.7,34.0,30.41,SSE,156,0.0,0.0,58,0.00,,,0.00,weatherlink.com 1.10,2013-04-27 01:52:00,
2013-04-26 22:08:00,48.2,35.0,30.41,SSE,158,0.0,0.0,60,0.00,,,0.00,weatherlink.com 1.10,2013-04-27 02:08:00,
2013-04-26 22:23:00,47.7,34.0,30.41,SE,145,0.0,1.0,60,0.00,,,0.00,weatherlink.com 1.10,2013-04-27 02:23:00,
2013-04-26 22:38:00,47.0,34.0,30.41,SSE,152,0.0,1.0,60,0.00,,,0.00,weatherlink.com 1.10,2013-04-27 02:38:00,
2013-04-26 22:53:00,47.4,34.0,30.41,SE,136,0.0,1.0,60,0.00,,,0.00,weatherlink.com 1.10,2013-04-27 02:53:00,
2013-04-26 23:08:00,45.9,33.0,30.41,North,8,1.0,2.0,62,0.00,,,0.00,weatherlink.com 1.10,2013-04-27 03:08:00,
2013-04-26 23:23:00,45.0,33.0,30.41,North,1,1.0,2.0,64,0.00,,,0.00,weatherlink.com 1.10,2013-04-27 03:23:00,
2013-04-26 23:38:00,44.3,34.0,30.40,North,349,0.0,2.0,66,0.00,,,0.00,weatherlink.com 1.10,2013-04-27 03:38:00,
2013-04-26 23:53:00,43.2,34.0,30.40,North,353,1.0,3.0,70,0.00,,,0.00,weatherlink.com 1.10,2013-04-27 03:53:00,